Tiempo atmosférico en la estación meteorológica de Alicante/Alacant Aeropuerto, Alacant/Alicante (43 m.)



Fecha
DESCASC
Temp. máxima en grados centígrados (hora)
DESCASC
Temp. mínima en grados centígrados (hora)
DESCASC
Temp. media en grados centígrados
DESCASC
Racha de viento máxima en m/sg (hora)
DESCASC
Velocidad máxima media en intervalos de 10 minutos(hora)
DESCASC
Precipitaciones diarias en mm
DESCASC
Precipitaciones de 00:00 a 06:00 en mm
DESCASC
Precipitaciones de 06:00 a 12:00 en mm
DESCASC
Precipitaciones de 12:00 a 18:00 en mm
DESCASC
Precipitaciones de 18:00 a 24:00 en mm
DESCASC

Gráficas

Temp. máximas Temp. mínimas Temp. medias Precipitaciones Rachas de viento máximas Velocidades máximas media en intervalos de 10 minutos

Datos horarios

Fecha y hora oficial Temperatura (ºC) Velocidad del viento (km/h) Dirección del viento Racha (km/h) Dirección de racha Precipitación (mm) Presión (hPa) Tendencia (hPa) Humedad (%)
2019-06-20 23:00:00 21 4 Sudeste 11 Sudeste 0 1008.9 0.8 87
2019-06-20 22:00:00 21.4 5 Este 18 Este 0 1008.4 0.4 83
2019-06-20 21:00:00 21.7 12 Este 21 Este 0 1008 -0.4 82
2019-06-20 20:00:00 22.9 11 Este 21 Este 0 1008.1 -0.3 75
2019-06-20 19:00:00 23.3 10 Este 22 Este 0 1008 -0.8 75
2019-06-20 18:00:00 23.8 14 Este 26 Este 0 1008.4 -0.8 73
2019-06-20 17:00:00 24.3 18 Este 32 Sudeste 0 1008.4 -1.2 69
2019-06-20 16:00:00 24.5 17 Este 28 Este 0 1008.8 -0.8 68
2019-06-20 15:00:00 24.4 18 Este 32 Este 0 1009.2 0.1 69
2019-06-20 14:00:00 24.7 21 Este 33 Este 0 1009.6 1 67
2019-06-20 13:00:00 25.2 19 Este 30 Este 0 1009.6 1.2 66
2019-06-20 12:00:00 25.1 18 Este 28 Este 0 1009.1 0.9 63
2019-06-20 11:00:00 25 15 Este 24 Este 0 1008.6 0.6 66
2019-06-20 10:00:00 24.3 13 Nordeste 21 Norte 0 1008.4 0.7 69
2019-06-20 09:00:00 22.8 9 Nordeste 22 Norte 0 1008.2 1 74
2019-06-20 08:00:00 20.8 13 Norte 21 Norte 0 1008 1.2 84
2019-06-20 07:00:00 18.1 10 Noroeste 11 Noroeste 0 1007.7 -0.1 91
2019-06-20 06:00:00 17.5 6 Sudoeste 11 Sur 0 1007.2 -1 87
2019-06-20 05:00:00 17.9 4 Oeste 8 Noroeste 0 1006.8 -1.9 93
2019-06-20 04:00:00 18.6 0 Calma 9 Este 0 1007.8 -1 94
2019-06-20 03:00:00 19.4 2 Norte 11 Noroeste 0 1008.2 -0.5 91
2019-06-20 02:00:00 20 7 Noroeste 11 Norte 0 1008.7 0 91
2019-06-20 01:00:00 20.6 3 Oeste -- -- 0 1008.8 0.8 89
2019-06-20 00:00:00 20.5 4 Oeste 8 Sudeste 0 1008.7 0.6 89
2019-06-19 23:00:00 21.2 2 Sudeste 15 Este 0 1008.7 0.6 88
2019-06-19 22:00:00 22.5 11 Este 15 Este 0 1008 -0.2 79
2019-06-19 21:00:00 24.8 12 Este 15 Este 0 1008.1 -0.3 59
2019-06-19 20:00:00 26.9 12 Este 17 Norte 0 1008.1 -0.6 46
2019-06-19 19:00:00 27.6 12 Este 21 Este 0 1008.2 -0.9 46
2019-06-19 18:00:00 29.1 14 Este 24 Norte 0 1008.4 -1.1 39
2019-06-19 17:00:00 29.2 17 Este 30 Este 0 1008.7 -1.1 44
2019-06-19 16:00:00 29.7 21 Este 32 Este 0 1009.1 -0.7 39
2019-06-19 15:00:00 29.9 22 Este 32 Este 0 1009.5 -0.2 37
2019-06-19 14:00:00 29.1 20 Este 28 Este 0 1009.8 0.1 46
2019-06-19 13:00:00 29.8 15 Este 22 Este 0 1009.8 0 45
2019-06-19 12:00:00 28.3 14 Este 22 Este 0 1009.7 -0.1 45
2019-06-19 11:00:00 29.4 9 Este 17 Este 0 1009.7 0.2 38
2019-06-19 10:00:00 25.1 12 Sudoeste 24 Sudoeste 0 1009.8 0.4 57
2019-06-19 09:00:00 22.2 16 Sudoeste 24 Sudoeste 0 1009.8 0.5 67
2019-06-19 08:00:00 19.3 11 Sudoeste 15 Sudoeste 0 1009.5 0.1 68
2019-06-19 07:00:00 17.9 10 Sudoeste 17 Sudoeste 0 1009.4 -0.5 66
2019-06-19 06:00:00 18 9 Oeste 13 Oeste 0 1009.3 -1 80
2019-06-19 05:00:00 18.5 8 Noroeste 13 Noroeste 0 1009.4 -1.1 95
2019-06-19 04:00:00 18.5 8 Oeste -- -- 0 1009.9 -1 93
2019-06-19 03:00:00 18.1 5 Oeste 8 Oeste 0 1010.3 -1 89
2019-06-19 02:00:00 19.4 5 Oeste -- -- 0 1010.5 -0.7 89
2019-06-19 01:00:00 20 -- -- -- -- 0 1010.9 0.3 88
2019-06-19 00:00:00 20.6 6 Oeste 9 Oeste 0 1011.3 1.2 85
2019-06-18 23:00:00 20.7 7 Sudoeste 13 Sur 0 1011.2 1.1 84
2019-06-18 22:00:00 21.4 8 Sur 17 Sur 0 1010.6 0.4 81
2019-06-18 21:00:00 23.9 6 Sudeste 13 Este 0 1010.1 -0.3 57
2019-06-18 20:00:00 24.9 8 Sudeste 18 Sudeste 0 1010.1 -- 53
2019-06-18 19:00:00 25.6 11 Este 22 Este 0 1010.2 -0.9 54
2019-06-18 18:00:00 26.7 11 Sudeste 24 Sudeste 0 1010.4 -1.2 50
2019-06-18 17:00:00 27.7 15 Este 28 Sudeste 0 -- -- 40
2019-06-18 16:00:00 27.6 18 Sudeste 30 Este 0 1011.1 -1.3 39
2019-06-18 15:00:00 27.3 12 Sur 28 Sur 0 1011.6 -0.7 34
2019-06-18 14:00:00 26.5 10 Sur 22 Sudoeste 0 1012.2 -0.1 48
2019-06-18 13:00:00 26.3 9 Sur 24 Este 0 1012.4 0 56
2019-06-18 12:00:00 25 10 Este 24 Este 0 1012.3 0 62
2019-06-18 11:00:00 23.7 8 Este 17 Sudeste 0 1012.3 0.3 67
2019-06-18 10:00:00 22.9 8 Este 15 Sudeste 0 1012.4 0.8 66
2019-06-18 09:00:00 21.6 4 Sur 9 Sudoeste 0 1012.3 1 68
2019-06-18 08:00:00 18.9 5 Oeste 13 Oeste 0 1012 0.9 58
2019-06-18 07:00:00 15 10 Oeste 13 Oeste 0 1011.6 0.1 69
2019-06-18 06:00:00 15.3 10 Oeste 11 Sudoeste 0 1011.3 -0.8 69
2019-06-18 05:00:00 16.6 2 Oeste 8 Oeste 0 1011.1 -1.2 69
2019-06-18 04:00:00 16.5 4 Oeste 11 Oeste 0 1011.5 -1.6 75
2019-06-18 03:00:00 16.5 9 Oeste 11 Oeste 0 1012.1 -0.9 83
2019-06-18 02:00:00 17.6 5 Noroeste 5 Noroeste 0 1012.3 -0.6 83
2019-06-18 01:00:00 18.5 5 Oeste 9 Oeste 0 1013.1 0.7 84
2019-06-18 00:00:00 20.1 6 Oeste 9 Oeste 0 1013 0.7 81
2019-06-17 23:00:00 20.1 -- -- -- -- 0 1012.9 0.5 83
2019-06-17 22:00:00 20.9 0 Calma 13 Este 0 1012.4 0.2 82
2019-06-17 21:00:00 22.2 8 Este 15 Este 0 1012.3 0 72
2019-06-17 20:00:00 23.1 10 Este 21 Este 0 1012.4 -0.2 70
2019-06-17 19:00:00 24.9 14 Este 24 Este 0 1012.2 -0.6 60
2019-06-17 18:00:00 25.6 15 Este 26 Este 0 1012.3 -0.7 57
2019-06-17 17:00:00 26.7 16 Este 28 Este 0 1012.6 -0.6 49
2019-06-17 16:00:00 27.5 14 Sudeste 24 Sudeste 0 1012.8 -0.8 44
2019-06-17 15:00:00 27.6 13 Sur 22 Sudeste 0 1013 -0.8 42
2019-06-17 14:00:00 27.7 13 Sur 28 Sur 0 1013.2 -0.7 39
2019-06-17 13:00:00 27.7 12 Sur 22 Sur 0 1013.6 -0.4 41
2019-06-17 12:00:00 27.9 11 Sur 21 Sur 0 1013.8 -0.2 37
2019-06-17 11:00:00 26.2 11 Sudoeste 21 Sur 0 1013.9 0.1 36
2019-06-17 10:00:00 24.5 12 Sudoeste 21 Oeste 0 1014 0.6 44
2019-06-17 09:00:00 22.1 9 Sudoeste 13 Sudoeste 0 1014 0.8 51
2019-06-17 08:00:00 18 10 Sudoeste 13 Sudoeste 0 1013.8 0.3 70
2019-06-17 07:00:00 16.6 9 Sudoeste 11 Sudoeste 0 1013.4 -0.6 74
2019-06-17 06:00:00 16.9 8 Oeste 13 Oeste 0 1013.2 -1.4 77
2019-06-17 05:00:00 16.6 8 Noroeste -- -- 0 1013.5 -1.4 78
2019-06-17 04:00:00 -- -- -- -- -- 0 1014 -1 --
2019-06-17 03:00:00 17.1 4 Oeste -- -- 0 1014.6 -0.5 71
2019-06-17 02:00:00 17.4 5 Oeste 11 Oeste 0 1014.9 -0.2 72
2019-06-17 01:00:00 19 3 Oeste 8 Oeste 0 1015 0.4 66
2019-06-17 00:00:00 21.2 5 Sudeste 13 Norte 0 1015.1 0.9 57
2019-06-16 23:00:00 21.2 5 Norte 11 Noroeste 0 1015.1 0.2 66
2019-06-16 22:00:00 21.3 4 Noroeste 17 Este 0 1014.6 -0.2 67
2019-06-16 21:00:00 21.1 12 Este 21 Este 0 1014.2 -0.5 71
2019-06-16 20:00:00 21.9 12 Este 22 Nordeste 0 1014.9 -0.3 68
2019-06-16 19:00:00 22.6 15 Este 26 Este 0 1014.8 -0.6 68
2019-06-16 18:00:00 22.5 19 Este 33 Este 0 1014.7 -1.1 66
2019-06-16 17:00:00 22.6 22 Este 33 Norte 0 1015.2 -1.1 66
2019-06-16 16:00:00 22.7 23 Este 33 Este 0 1015.4 -1.1 67
2019-06-16 15:00:00 23.2 22 Este 33 Este 0 1015.8 -0.7 64
2019-06-16 14:00:00 23.7 25 Este 35 Este 0 1016.3 -0.2 61
2019-06-16 13:00:00 23.4 21 Este 35 Norte 0 1016.5 0.3 66
2019-06-16 12:00:00 22.9 24 Este 35 Este 0 1016.5 0.7 67
2019-06-16 11:00:00 22.7 26 Este 37 Este 0 1016.5 1.2 68
2019-06-16 10:00:00 24.2 17 Este 26 Este 0 1016.2 1.4 53
2019-06-16 09:00:00 22.7 3 Nordeste 17 Este 0 1015.8 1.6 66
2019-06-16 08:00:00 21.4 12 Este 24 Este 0 1015.3 1.4 66
2019-06-16 07:00:00 18.9 11 Nordeste 24 Nordeste 0 1014.8 0.7 61
2019-06-16 06:00:00 17.8 7 Norte 17 Norte 0 1014.2 -0.3 50
2019-06-16 05:00:00 18.7 4 Norte 13 Noroeste 0 1013.9 -1.2 47
2019-06-16 04:00:00 18.8 12 Noroeste 15 Noroeste 0 1014.1 -1.1 47
2019-06-16 03:00:00 18.8 9 Noroeste 11 Noroeste 0 1014.5 -0.7 49
2019-06-16 02:00:00 19.1 6 Oeste 8 Oeste 0 1015.1 0.2 49
2019-06-16 01:00:00 19.1 3 Noroeste 9 Noroeste 0 1015.2 1.2 55
2019-06-16 00:00:00 20.7 5 Norte 11 Norte 0 1015.2 -- 48
2019-06-15 23:00:00 22 5 Norte 13 Norte 0 1014.9 1.8 48
2019-06-15 22:00:00 22.5 0 Calma 9 Sur 0 1014 1.5 49
2019-06-15 21:00:00 24.1 7 Sur 15 Sur 0 -- -- 41
2019-06-15 20:00:00 25.1 9 Sudeste 21 Sur 0 1013.1 0.6 38
2019-06-15 19:00:00 26.1 12 Sur 28 Sur 0 1012.5 0 36
2019-06-15 18:00:00 26.7 14 Sur 26 Sur 0 1012.5 -0.5 37
2019-06-15 17:00:00 27.4 15 Sur 28 Sur 0 1012.5 -0.9 36
2019-06-15 16:00:00 29 15 Sur 28 Sudeste 0 1012.5 -1.3 27
2019-06-15 15:00:00 29 18 Este 28 Sudeste 0 1013 -0.6 28
2019-06-15 14:00:00 28.1 17 Este 26 Este 0 1013.4 -0.2 29
2019-06-15 13:00:00 28.1 24 Este 33 Este 0 1013.8 0.2 32
2019-06-15 12:00:00 28.3 14 Noroeste 35 Oeste 0 1013.6 0.6 20
2019-06-15 11:00:00 26.4 26 Oeste 41 Noroeste 0 1013.6 1.5 23
2019-06-15 10:00:00 24.8 21 Oeste 30 Noroeste 0 1013.6 1.9 26
2019-06-15 09:00:00 22.8 18 Noroeste 32 Noroeste 0 1013 2.3 30
2019-06-15 08:00:00 21.4 23 Noroeste 46 Noroeste 0 1012.1 2.4 32
2019-06-15 07:00:00 21.2 22 Noroeste 46 Noroeste 0 1011.7 2 32
2019-06-15 06:00:00 21.7 32 Noroeste 54 Noroeste 0 1010.7 1 30
2019-06-15 05:00:00 22.7 40 Noroeste 59 Oeste 0 1009.7 -0.1 29
2019-06-15 04:00:00 23.3 35 Noroeste 54 Noroeste 0 1009.7 -0.4 28
2019-06-15 03:00:00 20.8 5 Noroeste 13 Oeste 0 1009.7 -0.2 44
2019-06-15 02:00:00 19.3 3 Oeste 5 Oeste 0 1009.8 0.2 78
2019-06-15 01:00:00 20.2 3 Oeste 9 Sur 0 1010.1 1.2 78
2019-06-15 00:00:00 20.5 3 Sur 9 Sur 0 1009.9 1.5 77
2019-06-14 23:00:00 21.7 5 Este 8 Este 0 1009.6 1.7 69
2019-06-14 22:00:00 22.2 2 Sudeste 11 Sudeste 0 1008.9 1.3 64
2019-06-14 21:00:00 23.8 5 Sudeste 18 Sur 0 1008.4 0.7 58
2019-06-14 20:00:00 25.7 14 Sur 30 Sur 0 1007.9 0.1 51
2019-06-14 19:00:00 26.9 19 Sur 35 Sur 0 1007.6 -- 46
2019-06-14 18:00:00 27 21 Sur 45 Sur 0 1007.7 -0.5 44
2019-06-14 17:00:00 28 26 Sur 46 Sur 0 1007.8 -0.6 44
2019-06-14 16:00:00 28.7 23 Sur 41 Sur 0 -- -- 48
2019-06-14 15:00:00 27.4 23 Sur 33 Sur 0 1008.2 -0.7 55
2019-06-14 14:00:00 26.6 19 Sur 30 Sur 0 1008.4 -0.6 57
2019-06-14 13:00:00 26.7 13 Sur 30 Sur 0 1008.6 0.1 51
2019-06-14 12:00:00 24.4 19 Sudoeste 28 Sudoeste 0 1008.9 1 56
2019-06-14 11:00:00 20.3 11 Oeste 24 Sudoeste 0.3 1009 1.6 76
2019-06-14 10:00:00 22 14 Sudoeste 24 Sudoeste 0 1008.5 1.4 60
2019-06-14 09:00:00 22 12 Sudoeste 17 Oeste 0 1007.9 2.1 52
2019-06-14 08:00:00 20 6 Sudoeste 13 Noroeste 0 1007.4 2 51
2019-06-14 07:00:00 19.1 9 Oeste 22 Oeste 0 1007.1 1.6 51
2019-06-14 06:00:00 19.1 13 Oeste 22 Oeste 0 1005.8 0.1 52
2019-06-14 05:00:00 20.2 10 Sudoeste 32 Oeste 0 1005.4 0.5 50
2019-06-14 04:00:00 20 15 Sudoeste 28 Oeste 0 1005.5 0.1 51
2019-06-14 03:00:00 20.6 16 Oeste 30 Sudoeste 0 1005.7 -0.5 50
2019-06-14 02:00:00 20.2 16 Oeste 28 Oeste 0 1004.9 -2 54
2019-06-14 01:00:00 19.9 13 Oeste 21 Oeste 0 1005.4 0.2 58
2019-06-14 00:00:00 19.9 10 Sudoeste 17 Sudoeste 0 1006.2 1.1 69
2019-06-13 23:00:00 20.4 10 Sudoeste 26 Este 0 1006.9 2 67
2019-06-13 22:00:00 21.6 21 Este 39 Este 0 1005.2 0.2 62
2019-06-13 21:00:00 21.6 25 Este 39 Este 0 1005.1 -0.1 64
2019-06-13 20:00:00 22.7 22 Este 39 Este 0 1004.9 -0.6 60
2019-06-13 19:00:00 23.3 28 Este 42 Este 0 1005 -1.1 58
2019-06-13 18:00:00 24.2 28 Este 48 Este 0 1005.2 -1.5 59
2019-06-13 17:00:00 24.8 35 Este 50 Este 0 1005.5 -1.8 55
2019-06-13 16:00:00 25.2 33 Este 50 Este 0 1006.1 -1.6 46
2019-06-13 15:00:00 24.9 37 Este 52 Este 0 1006.7 -1.7 49
2019-06-13 14:00:00 24.4 32 Este 50 Este 0 1007.3 -1.4 55
2019-06-13 13:00:00 24.2 37 Este 54 Este 0 1007.7 -1.3 56
2019-06-13 12:00:00 23.9 34 Este 45 Nordeste 0 1008.4 -1 55
2019-06-13 11:00:00 23.6 23 Nordeste 35 Este 0 1008.7 -0.1 53
2019-06-13 10:00:00 22.7 22 Nordeste 35 Nordeste 0 1009 0.5 56
2019-06-13 09:00:00 21 15 Nordeste 32 Este 0 1009.4 1.1 67
2019-06-13 08:00:00 19.7 11 Nordeste 28 Este 0 1008.8 0.6 79
2019-06-13 07:00:00 18.9 15 Nordeste 28 Este 0 1008.5 0.2 85
2019-06-13 06:00:00 19.4 13 Nordeste 30 Nordeste 0 1008.3 -0.8 85
2019-06-13 05:00:00 19.4 17 Nordeste 30 Este 0 1008.2 -1.5 85
2019-06-13 04:00:00 19.9 17 Nordeste 32 Este 0 1008.3 -1.7 87
2019-06-13 03:00:00 19.9 17 Nordeste 28 Nordeste 0 1009.1 -1.1 88
2019-06-13 02:00:00 19.7 11 Nordeste 22 Este 0 1009.7 -0.4 86
2019-06-13 01:00:00 19.7 16 Nordeste 26 Este 0 1010 0.3 84
2019-06-13 00:00:00 19.6 18 Nordeste 28 Nordeste 0 1010.2 0.8 82
2019-06-12 23:00:00 19.7 16 Nordeste 33 Este 0 1010.1 0.7 80
2019-06-12 22:00:00 19.4 22 Nordeste 39 Nordeste 0 1009.7 0.2 79
2019-06-12 21:00:00 19.6 24 Este 37 Este 0 1009.4 -0.6 75
2019-06-12 20:00:00 20.2 25 Este 39 Este 0 1009.4 -0.9 73
2019-06-12 19:00:00 20.7 26 Este 42 Este 0 1009.5 -0.8 68
2019-06-12 18:00:00 21.5 29 Nordeste 45 Este 0 1010 -0.7 63
2019-06-12 17:00:00 21.7 30 Nordeste 42 Este 0 1010.3 -0.8 61
2019-06-12 16:00:00 22.3 30 Este 45 Este 0 1010.3 -0.9 49
2019-06-12 15:00:00 22.8 32 Nordeste 45 Este 0 1010.7 -0.7 44
2019-06-12 14:00:00 22.3 31 Este 39 Este 0 1011.1 -0.2 49
2019-06-12 13:00:00 22.7 25 Este 39 Norte 0 1011.2 -0.3 42
2019-06-12 12:00:00 22.5 17 Este 24 Este 0 1011.4 -0.3 38
2019-06-12 11:00:00 21.7 10 Este 21 Nordeste 0 1011.3 0.1 38
2019-06-12 10:00:00 20.4 8 Nordeste 18 Nordeste 0 1011.5 0.6 44
2019-06-12 09:00:00 19.1 5 Noroeste 17 Noroeste 0 1011.7 1.3 51
2019-06-12 08:00:00 16.5 11 Noroeste 17 Noroeste 0 1011.2 1.1 61
2019-06-12 07:00:00 14.7 12 Noroeste 17 Noroeste 0 1010.9 1.2 69
2019-06-12 06:00:00 15.2 9 Noroeste 13 Noroeste 0 1010.4 0.4 69
2019-06-12 05:00:00 14.4 7 Oeste 13 Oeste 0 1010.1 -0.2 74
2019-06-12 04:00:00 15.8 6 Oeste 13 Noroeste 0 1009.7 -0.4 70
2019-06-12 03:00:00 16.7 6 Norte 24 Este 0 1010 0.2 70
2019-06-12 02:00:00 16.6 18 Este 30 Este 0 1010.3 0.5 71
2019-06-12 01:00:00 17.9 8 Nordeste 22 Nordeste 0 1010.1 1.2 61
2019-06-12 00:00:00 18.6 16 Nordeste 24 Nordeste 0 1009.8 1.9 57
2019-06-11 23:00:00 18.9 17 Nordeste 30 Nordeste 0 1009.8 2.5 60
2019-06-11 22:00:00 19.7 19 Nordeste 35 Nordeste 0 1008.9 2.4 61
2019-06-11 21:00:00 19.6 24 Este 46 Este 0 1007.9 1.9 65
2019-06-11 20:00:00 19.7 35 Este 54 Nordeste 0 1007.3 1.4 68
2019-06-11 19:00:00 20.5 36 Este 54 Este 0 1006.5 1 69
2019-06-11 18:00:00 22.3 41 Este 54 Este 0 1006 0.6 66
2019-06-11 17:00:00 22.9 20 Este 33 Este 0 1005.9 0.3 64
2019-06-11 16:00:00 23.7 20 Este 32 Este 0 1005.5 -0.2 59
2019-06-11 15:00:00 24 18 Este 33 Norte 0 1005.4 -0.5 61
2019-06-11 14:00:00 23.5 21 Este 35 Sudeste 0 1005.6 -0.2 62
2019-06-11 13:00:00 23.8 22 Este 33 Este 0 1005.7 -0.5 61
2019-06-11 12:00:00 23.3 17 Este 28 Este 0 1005.9 -0.3 64
2019-06-11 11:00:00 22.9 14 Este 28 Este 0 1005.8 -0.3 68
2019-06-11 10:00:00 22 13 Nordeste 22 Este 0 1006.2 0.3 71
2019-06-11 09:00:00 21.5 8 Nordeste 17 Norte 0 1006.2 0.5 72
2019-06-11 08:00:00 18.6 9 Norte 15 Norte 0 1006.1 -0.1 84
2019-06-11 07:00:00 16.5 6 Norte 9 Nordeste 0 1005.9 -0.9 92
2019-06-11 06:00:00 15.7 3 Noroeste 8 Oeste 0 1005.7 -1.7 93
2019-06-11 05:00:00 16.6 0 Calma 8 Oeste 0 1006.2 -1.8 93
2019-06-11 04:00:00 16.8 -- -- -- -- 0 1006.8 -1.8 90
2019-06-11 03:00:00 17.1 -- -- -- -- 0 1007.4 -1.7 88
2019-06-11 02:00:00 17.6 3 Noroeste 5 Noroeste 0 1008 -1.3 85
2019-06-11 01:00:00 18.4 0 Calma 5 Sur 0 1008.6 -0.5 81
2019-06-11 00:00:00 19.8 0 Calma 5 Sudeste 0 1009.1 0.5 81
2019-06-10 23:00:00 20.5 0 Calma 11 Nordeste 0 1009.3 0.6 76
2019-06-10 22:00:00 20.7 6 Norte 15 Nordeste 0 1009.1 0.4 75
2019-06-10 21:00:00 21.2 9 Nordeste 17 Nordeste 0 1008.6 -0.4 76
2019-06-10 20:00:00 21.6 10 Este 18 Este 0 1008.7 -0.6 78
2019-06-10 19:00:00 22.3 12 Este 21 Este 0 1008.7 -0.9 73
2019-06-10 18:00:00 23.3 14 Este 24 Este 0 1009 -0.7 69
2019-06-10 17:00:00 23.6 16 Este 28 Este 0 1009.3 -0.8 68
2019-06-10 16:00:00 23.9 19 Este 30 Este 0 1009.6 -0.6 65
2019-06-10 15:00:00 24.4 19 Este 30 Este 0 1009.7 -0.6 54
2019-06-10 14:00:00 25.2 20 Este 28 Sudeste 0 1010.1 -0.3 42
2019-06-10 13:00:00 25.2 18 Este 28 Sudeste 0 1010.2 -0.3 51
2019-06-10 12:00:00 23.9 15 Este 24 Este 0 1010.3 0.2 63
2019-06-10 11:00:00 22.9 16 Este 24 Norte 0 1010.4 0.6 67
2019-06-10 10:00:00 22.9 12 Este 17 Este 0 1010.5 1.5 63
2019-06-10 09:00:00 21.6 10 Este 24 Este 0 1010.1 2.1 73
2019-06-10 08:00:00 20.6 13 Nordeste 24 Nordeste 0 1009.8 1.8 84
2019-06-10 07:00:00 20.4 13 Nordeste 28 Este 0 1009 0.8 78
2019-06-10 06:00:00 23.7 5 Noroeste 32 Noroeste 0 1008 -0.6 24
2019-06-10 05:00:00 24.2 21 Noroeste 45 Oeste 0 1008 -1 24
2019-06-10 04:00:00 22.4 11 Oeste 21 Oeste 0 1008.2 -1.5 34
2019-06-10 03:00:00 20.1 12 Sudoeste 17 Oeste 0 1008.6 -1.5 68
2019-06-10 02:00:00 20.6 9 Oeste 11 Oeste 0 1009 -1.3 68
2019-06-10 01:00:00 19.9 2 Oeste 9 Norte 0 1009.7 0 73
2019-06-10 00:00:00 21 5 Norte 9 Norte 0 1010.1 0.6 67
2019-06-09 23:00:00 23.9 0 Calma 9 Norte 0 1010.3 0.8 56
2019-06-09 22:00:00 23.6 0 Calma 13 Sur 0 1009.7 0.3 59
2019-06-09 21:00:00 24.7 9 Sur 18 Sur 0 1009.5 -0.2 58
2019-06-09 20:00:00 25.9 13 Sur 24 Sur 0 1009.5 -0.7 54
2019-06-09 19:00:00 26 15 Sur 28 Sur 0 1009.4 -1.2 53
2019-06-09 18:00:00 26.8 15 Sur 32 Sur 0 1009.7 -1.2 52
2019-06-09 17:00:00 25.3 18 Sur 35 Sur 0 1010.2 -1.1 57
2019-06-09 16:00:00 26.4 21 Sur 33 Sur 0 1010.6 -0.9 55
2019-06-09 15:00:00 24.7 17 Sur 28 Sur 0 1010.9 -1.3 56
2019-06-09 14:00:00 25.3 16 Sur 26 Sur 0 1011.3 -1.2 49
2019-06-09 13:00:00 26.5 11 Sudoeste 26 Sudoeste 0 1011.5 -- 38
2019-06-09 12:00:00 25.5 13 Sudoeste 24 Oeste 0 1012.2 -0.4 41
2019-06-09 11:00:00 24.5 14 Sudoeste 22 Sudoeste 0 1012.5 0.2 44
2019-06-09 10:00:00 23.6 3 Oeste 15 Oeste 0 -- -- 42
2019-06-09 09:00:00 21.6 9 Noroeste 17 Oeste 0 1012.6 1 48
2019-06-09 08:00:00 20.2 14 Oeste 22 Oeste 0 1012.3 0 51
2019-06-09 07:00:00 20 15 Oeste 22 Oeste 0 1012.3 0 54
2019-06-09 06:00:00 19.7 5 Sudoeste 28 Oeste 0 1011.6 -1.6 58
2019-06-09 05:00:00 19.6 15 Oeste 30 Oeste 0 1012.3 -2 61
2019-06-09 04:00:00 20.2 14 Oeste 26 Noroeste 0 1012.3 -2.4 59
2019-06-09 03:00:00 20 15 Oeste 28 Noroeste 0 1013.2 -1.6 61
2019-06-09 02:00:00 20 17 Oeste 26 Oeste 0 1014.3 -0.4 66
2019-06-09 01:00:00 19.6 14 Oeste 18 Oeste 0 1014.7 1.1 78
2019-06-09 00:00:00 19.7 0 Calma 9 Sudeste 0 1014.8 1.3 79
2019-06-08 23:00:00 21 5 Sudeste 17 Este 0 1014.7 0.9 67
2019-06-08 22:00:00 22.6 12 Este 17 Este 0 1013.6 -0.6 54
2019-06-08 21:00:00 23.7 12 Nordeste 37 Este 0 1013.5 -1.1 46
2019-06-08 20:00:00 23.9 24 Nordeste 42 Este 0 1013.8 -1.2 50
2019-06-08 19:00:00 23.4 30 Este 58 Este 0 1014.2 -1.1 58
2019-06-08 18:00:00 23.8 34 Este 52 Este 0 1014.6 -1.2 59
2019-06-08 17:00:00 23.8 41 Este 65 Este 0 1015 -1.5 57
2019-06-08 16:00:00 24 44 Este 65 Este 0 1015.3 -1.5 58
2019-06-08 15:00:00 24 45 Este 65 Este 0 1015.8 -0.9 58
2019-06-08 14:00:00 24.4 45 Este 63 Este 0 1016.5 -0.1 57
2019-06-08 13:00:00 24.6 42 Este 59 Este 0 1016.8 0.3 53
2019-06-08 12:00:00 24.3 42 Este 59 Este 0 1016.7 0.9 60
2019-06-08 11:00:00 23.6 40 Este 55 Este 0 1016.6 1 62
2019-06-08 10:00:00 23.7 24 Este 33 Este 0 1016.5 1.2 54
2019-06-08 09:00:00 23.9 14 Norte 21 Norte 0 1015.8 0.7 42
2019-06-08 08:00:00 21.2 12 Norte 21 Norte 0 1015.6 0.8 51
2019-06-08 07:00:00 19.4 13 Norte 17 Nordeste 0 1015.3 0.6 52
2019-06-08 06:00:00 19 9 Norte 13 Norte 0 1015.1 0.2 49
2019-06-08 05:00:00 19.3 0 Calma 15 Norte 0 1014.8 -0.1 48
2019-06-08 04:00:00 19.5 12 Norte 17 Norte 0 1014.7 -0.3 49
2019-06-08 03:00:00 18.7 9 Noroeste 13 Norte 0 1014.9 0 53
2019-06-08 02:00:00 19.8 8 Norte 13 Norte 0 1014.9 0.5 57
2019-06-08 01:00:00 20.2 5 Norte 11 Nordeste 0 1015 1.5 69
2019-06-08 00:00:00 20.2 4 Nordeste 11 Nordeste 0 1014.9 2 73
2019-06-07 23:00:00 21.4 7 Nordeste 15 Nordeste 0 1014.4 2.2 71
2019-06-07 22:00:00 21.2 11 Nordeste 17 Este 0 1013.5 1.9 72
2019-06-07 21:00:00 22.2 10 Este 18 Este 0 1012.9 1.6 68
2019-06-07 20:00:00 23.4 13 Este 24 Este 0 1012.2 1.1 60
2019-06-07 19:00:00 25.3 15 Este 26 Este 0 1011.6 0.7 46
2019-06-07 18:00:00 26.5 9 Sur 26 Sur 0 1011.3 0.6 41
2019-06-07 17:00:00 26.8 14 Sur 26 Sudeste 0 1011.1 0.6 43
2019-06-07 16:00:00 27.4 14 Sur 26 Sur 0 1010.9 0.4 38
2019-06-07 15:00:00 26.9 16 Sur 32 Sur 0 1010.7 0.4 43
2019-06-07 14:00:00 28 16 Sudeste 28 Sudeste 0 1010.5 0.5 38
2019-06-07 13:00:00 27.8 9 Sur 30 Oeste 0 1010.5 0.9 41
2019-06-07 12:00:00 26.8 12 Sudoeste 22 Oeste 0 1010.3 1.1 36
2019-06-07 11:00:00 25 12 Sudoeste 26 Oeste 0 1010 1.3 44
2019-06-07 10:00:00 24.6 15 Oeste 26 Oeste 0 1009.6 1.4 34
2019-06-07 09:00:00 20.8 12 Sudoeste 17 Sudoeste 0 1009.2 1.6 69
2019-06-07 08:00:00 17.3 7 Oeste 18 Sudoeste 0 1008.7 1.3 81
2019-06-07 07:00:00 16.2 13 Sudoeste 17 Sudoeste 0 1008.2 0.5 83
2019-06-07 06:00:00 15.3 8 Oeste 13 Oeste 0 1007.6 -0.3 89
2019-06-07 05:00:00 16.1 8 Oeste 13 Noroeste 0 1007.4 -0.9 87
2019-06-07 04:00:00 17.5 11 Noroeste 15 Noroeste 0 1007.7 -0.9 84
2019-06-07 03:00:00 17.4 9 Norte 9 Norte 0 1007.9 -0.7 87
2019-06-07 02:00:00 17.7 0 Calma 5 Noroeste 0 1008.3 -0.1 84
2019-06-07 01:00:00 18.1 0 Calma 4 Sur 0 1008.6 0.9 85
2019-06-07 00:00:00 18.7 0 Calma 5 Sudeste 0 1008.6 1.2 83
2019-06-06 23:00:00 19.5 5 Sudeste 13 Este 0 1008.4 1.2 81
2019-06-06 22:00:00 19.5 8 Este 15 Este 0 1007.7 0.1 81
2019-06-06 21:00:00 20.1 9 Este 21 Norte 0 1007.4 -0.7 77
2019-06-06 20:00:00 21.2 12 Nordeste 22 Sudeste 0 1007.2 -1.4 71
2019-06-06 19:00:00 21.8 13 Este 26 Este 0 1007.6 -1.5 69
2019-06-06 18:00:00 22.7 15 Este 28 Este 0 1008.1 -1.4 65
2019-06-06 17:00:00 23.5 16 Este 28 Este 0 1008.6 -1.4 64
2019-06-06 16:00:00 23.9 19 Este 37 Este 0 1009.1 -1 61
2019-06-06 15:00:00 23.9 24 Este 37 Este 0 1009.5 -0.6 66
2019-06-06 14:00:00 23.8 22 Este 37 Este 0 1010 -0.1 65
2019-06-06 13:00:00 23.9 27 Este 37 Este 0 1010.1 -0.1 64
2019-06-06 12:00:00 24 23 Este 33 Este 0 1010.1 0.3 67
2019-06-06 11:00:00 23.1 20 Nordeste 33 Este 0 1010.1 0.4 71
2019-06-06 10:00:00 22.9 20 Nordeste 32 Nordeste 0 1010.2 0.8 73
2019-06-06 09:00:00 22.3 11 Nordeste 21 Nordeste 0 1009.8 0.7 55
2019-06-06 08:00:00 18.7 7 Noroeste 15 Norte 0 1009.7 0.8 35
2019-06-06 07:00:00 17.5 10 Norte 15 Norte 0 1009.4 0.5 35
2019-06-06 06:00:00 18.2 6 Norte 21 Norte 0 1009.1 0.1 31
2019-06-06 05:00:00 18.3 15 Noroeste 22 Noroeste 0 1008.9 -0.4 30
2019-06-06 04:00:00 18 11 Noroeste 21 Noroeste 0 1008.9 -0.4 32
2019-06-06 03:00:00 18.5 13 Noroeste 15 Noroeste 0 1009 0 32
2019-06-06 02:00:00 19.1 10 Noroeste 15 Noroeste 0 1009.3 0.6 30
2019-06-06 01:00:00 18.9 7 Noroeste 13 Oeste 0 1009.3 1.6 38
2019-06-06 00:00:00 19.9 6 Noroeste 9 Noroeste 0 1009 2.1 44
2019-06-05 23:00:00 21 6 Noroeste 13 Noroeste 0 1008.7 2.4 67
2019-06-05 22:00:00 21.5 4 Sudoeste 17 Sur 0 1007.7 1.7 70
2019-06-05 21:00:00 24.4 7 Sur 30 Noroeste 0 1006.9 0.9 52
2019-06-05 20:00:00 27.5 21 Noroeste 33 Noroeste 0 1006.3 0.6 16
2019-06-05 19:00:00 28.6 18 Noroeste 37 Oeste 0 1006 0 15
2019-06-05 18:00:00 29.4 22 Oeste 46 Noroeste 0 1006 0.1 14
2019-06-05 17:00:00 29.2 20 Oeste 46 Oeste 0 1005.7 0.1 14
2019-06-05 16:00:00 28.1 23 Oeste 45 Noroeste 0 1006 0.5 14
2019-06-05 15:00:00 28.1 25 Oeste 54 Oeste 0 1005.9 1.1 14
2019-06-05 14:00:00 28.5 39 Noroeste 58 Noroeste 0 1005.6 1.4 13
2019-06-05 13:00:00 28.2 30 Oeste 58 Oeste 0 1005.5 1.4 18
2019-06-05 12:00:00 28.1 34 Oeste 46 Oeste 0 1004.8 1.1 23
2019-06-05 11:00:00 27.8 28 Oeste 45 Oeste 0 1004.2 0.9 30
2019-06-05 10:00:00 23.7 14 Sudoeste 21 Sudoeste 0 1004.1 1.2 59
2019-06-05 09:00:00 21.1 12 Sudoeste 21 Sudoeste 0 1003.7 1 73
2019-06-05 08:00:00 18.7 11 Sudoeste 18 Oeste 0 1003.3 0.3 78
2019-06-05 07:00:00 16.5 12 Oeste 17 Oeste 0 1002.9 -0.6 85
2019-06-05 06:00:00 16.6 8 Oeste 11 Oeste 0 1002.7 -1.4 87
2019-06-05 05:00:00 17.2 6 Noroeste 9 Oeste 0 1003 -1.6 92
2019-06-05 04:00:00 17.2 4 Noroeste 8 Noroeste 0 1003.5 -1.6 90
2019-06-05 03:00:00 17.1 0 Calma 8 Norte 0 1004.1 -1.2 87
2019-06-05 02:00:00 18.1 0 Calma 9 Norte 0 1004.6 -1 84
2019-06-05 01:00:00 19 3 Oeste 5 Oeste 0 1005.1 -0.2 82
2019-06-05 00:00:00 19.2 0 Calma 4 Nordeste 0 1005.3 0.1 83
2019-06-04 23:00:00 19.3 2 Sur 5 Sur 0 1005.6 0.1 81
2019-06-04 22:00:00 20.2 2 Sur 13 Sur 0 1005.3 -0.4 76
2019-06-04 21:00:00 21.7 8 Sur 13 Sur 0 1005.2 -0.8 69
2019-06-04 20:00:00 23.2 7 Sudeste 21 Sur 0 1005.5 -1 65
2019-06-04 19:00:00 24.1 13 Sur 24 Sur 0 1005.7 -1.6 61
2019-06-04 18:00:00 26.3 10 Sur 26 Este 0 1006 -1.7 51
2019-06-04 17:00:00 27 10 Este 22 Sudeste 0 1006.5 -1.9 45
2019-06-04 16:00:00 26 14 Sur 26 Sur 0 1007.3 -1.6 60
2019-06-04 15:00:00 26.8 12 Sur 24 Sur 0 1007.7 -1.5 54
2019-06-04 14:00:00 26.5 12 Sur 28 Sur 0 1008.4 -1.2 56
2019-06-04 13:00:00 26.3 11 Sur 22 Sur 0 1008.9 -1.3 55
2019-06-04 12:00:00 26.4 7 Sur 17 Sur 0 1009.2 -0.9 44
2019-06-04 11:00:00 23.9 7 Sur 13 Sur 0 1009.6 -0.3 56
2019-06-04 10:00:00 21.8 7 Sur 13 Sudoeste 0 1010.2 0.6 68
2019-06-04 09:00:00 19.4 8 Oeste 13 Sudoeste 0 1010.1 0.8 82
2019-06-04 08:00:00 16.9 8 Oeste 11 Oeste 0 1009.9 0.3 97
2019-06-04 07:00:00 15.1 8 Oeste 13 Oeste 0 1009.6 -0.5 92
2019-06-04 06:00:00 15.6 8 Oeste 9 Oeste 0 1009.3 -1.4 90
2019-06-04 05:00:00 15.3 0 Calma 4 Noroeste 0 1009.6 -1.8 93
2019-06-04 04:00:00 16 -- -- -- -- 0 1010.1 -1.8 94
2019-06-04 03:00:00 17 0 Calma 5 Oeste 0 1010.7 -1.6 92
2019-06-04 02:00:00 18 6 Oeste 8 Oeste 0 1011.4 -1.1 91
2019-06-04 01:00:00 18.5 0 Calma -- -- 0 1011.9 -0.3 87
2019-06-04 00:00:00 19.8 0 Calma -- -- 0 1012.3 0.3 87
2019-06-03 23:00:00 19.6 0 Calma 4 Sudoeste 0 1012.5 -- 84
2019-06-03 22:00:00 20.4 0 Calma 11 Sudeste 0 1012.2 0 79
2019-06-03 21:00:00 22.7 8 Sudeste 13 Este 0 1012 -0.5 59
2019-06-03 20:00:00 24.7 9 Este 18 Este 0 -- -- 44
2019-06-03 19:00:00 25.4 9 Este 21 Norte 0 1012.2 -1.2 47
2019-06-03 18:00:00 26.2 15 Este 24 Este 0 1012.5 -1.4 39
2019-06-03 17:00:00 27.9 15 Este 24 Este 0 1012.9 -1.6 27
2019-06-03 16:00:00 27.3 14 Este 24 Norte 0 1013.4 -1.7 32
2019-06-03 15:00:00 26.8 14 Este 24 Este 0 1013.9 -1.4 39
2019-06-03 14:00:00 26.3 12 Este 21 Este 0 1014.5 -0.7 36
2019-06-03 13:00:00 25.1 13 Este 22 Este 0 1015.1 0.2 52
2019-06-03 12:00:00 24.4 11 Este 21 Este 0 1015.3 0.6 52
2019-06-03 11:00:00 23.8 10 Este 18 Este 0 1015.2 0.4 49
2019-06-03 10:00:00 22.7 10 Este 15 Este 0 1014.9 0.5 46
2019-06-03 09:00:00 21.9 4 Este 8 Este 0 1014.7 0.7 48
2019-06-03 08:00:00 18.3 0 Calma 8 Oeste 0 1014.8 0.7 57
2019-06-03 07:00:00 14.6 -- -- -- -- 0 1014.4 0 72
2019-06-03 06:00:00 16.1 0 Calma -- -- 0 1014 -0.9 65
2019-06-03 05:00:00 14.9 5 Noroeste 5 Noroeste 0 1014.1 -1.4 76
2019-06-03 04:00:00 15.8 3 Oeste -- -- 0 1014.4 -1.4 75
2019-06-03 03:00:00 16 -- -- -- -- 0 1014.9 -1.1 74
2019-06-03 02:00:00 16.9 6 Oeste 9 Oeste 0 1015.5 -0.2 79
2019-06-03 01:00:00 17.6 4 Noroeste 8 Oeste 0 1015.8 0.8 76
2019-06-03 00:00:00 19.7 0 Calma 8 Este 0 1016 1.1 73
2019-06-02 23:00:00 19.7 0 Calma 9 Sudeste 0 1015.7 0.9 75
2019-06-02 22:00:00 20.6 4 Nordeste 11 Nordeste 0 1015 0.2 68
2019-06-02 21:00:00 21.6 7 Este 13 Este 0 1014.9 -0.2 61
2019-06-02 20:00:00 22.9 10 Este 18 Este 0 1014.8 -0.5 51
2019-06-02 19:00:00 23.7 13 Este 22 Sudeste 0 1014.8 -0.7 47
2019-06-02 18:00:00 24.7 15 Este 24 Este 0 1015.1 -0.6 37
2019-06-02 17:00:00 25.7 16 Este 26 Este 0 1015.3 -1 28
2019-06-02 16:00:00 26.2 17 Este 24 Este 0 1015.5 -1.2 24
2019-06-02 15:00:00 26.2 15 Este 26 Este 0 1015.7 -1.2 25
2019-06-02 14:00:00 26.7 15 Este 24 Este 0 1016.3 -0.5 23
2019-06-02 13:00:00 26.7 13 Este 21 Este 0 1016.7 0 23
2019-06-02 12:00:00 26.1 13 Este 21 Este 0 1016.9 0.4 23
2019-06-02 11:00:00 25.6 14 Este 21 Este 0 1016.8 0.4 22
2019-06-02 10:00:00 24.3 3 Nordeste 8 Este 0 1016.7 -- 20
2019-06-02 09:00:00 21.9 2 Este 5 Este 0 1016.5 -- 33
2019-06-02 08:00:00 17.8 4 Oeste -- -- -- 1016.4 -- 41
2019-06-02 07:00:00 -- -- -- -- -- -- -- -- --
2019-06-02 06:00:00 -- -- -- -- -- -- -- -- --
2019-06-02 05:00:00 16.1 9 Noroeste 13 Noroeste 0 -- -- 42
2019-06-02 04:00:00 15.8 10 Noroeste 13 Noroeste 0 -- -- 44
2019-06-02 03:00:00 16 8 Noroeste 9 Noroeste 0 -- -- 44
2019-06-02 02:00:00 16.4 5 Noroeste 9 Norte 0 1017.7 0.1 51
2019-06-02 01:00:00 16.4 5 Oeste 11 Norte 0 1017.8 0.6 52
2019-06-02 00:00:00 17.7 0 Calma 11 Norte 0 1017.8 0.8 47
2019-06-01 23:00:00 19.2 6 Norte 15 Este 0 1017.6 0.8 52
2019-06-01 22:00:00 20.2 10 Este 15 Este 0 1017.2 0.4 54
2019-06-01 21:00:00 21.5 10 Este 18 Este 0 1017 -0.2 40
2019-06-01 20:00:00 23.1 12 Este 21 Este 0 1016.8 -0.7 34
2019-06-01 19:00:00 23.7 13 Este 21 Este 0 1016.8 -1.1 38
2019-06-01 18:00:00 24.5 15 Nordeste 22 Este 0 1017.2 -1.2 31
2019-06-01 17:00:00 24.9 15 Este 22 Este 0 1017.5 -1.4 28
2019-06-01 16:00:00 25.3 14 Este 22 Este 0 1017.9 -1.4 27
2019-06-01 15:00:00 25.2 13 Este 22 Este 0 1018.4 -1.1 33
2019-06-01 14:00:00 24.3 14 Este 26 Este 0 1018.9 -0.5 37
2019-06-01 13:00:00 24.1 14 Este 22 Este 0 1019.3 0.1 43
2019-06-01 12:00:00 23.7 14 Este 22 Este 0 1019.5 0.4 48
2019-06-01 11:00:00 22.8 12 Este 21 Este 0 1019.4 0.5 39
2019-06-01 10:00:00 22.7 11 Este 17 Este 0 1019.2 0.6 30
2019-06-01 09:00:00 21.5 3 Nordeste 9 Noroeste 0 1019.1 0.8 35
2019-06-01 08:00:00 17.2 3 Noroeste 8 Noroeste 0 1018.9 0.5 53
2019-06-01 07:00:00 14.3 5 Noroeste 9 Noroeste 0 1018.6 -0.2 63
2019-06-01 06:00:00 14.5 8 Noroeste 9 Noroeste 0 1018.3 -0.8 64
2019-06-01 05:00:00 14.9 9 Noroeste 11 Noroeste 0 1018.4 -1.2 67
2019-06-01 04:00:00 15.2 6 Noroeste 11 Noroeste 0 1018.8 -1 70
2019-06-01 03:00:00 15.7 8 Norte 9 Norte 0 1019.1 -0.8 71
2019-06-01 02:00:00 15.3 6 Noroeste 9 Noroeste 0 1019.6 -0.1 76
2019-06-01 01:00:00 16.8 5 Noroeste 8 Noroeste 0 1019.8 0.3 71
2019-06-01 00:00:00 18 0 Calma 11 Norte 0 1019.9 0.7 71
2019-05-31 23:00:00 18.9 6 Nordeste 11 Nordeste 0 1019.7 0.5 70
2019-05-31 22:00:00 19.4 7 Este 13 Este 0 1019.5 0.1 68
2019-05-31 21:00:00 20.2 7 Este 17 Este 0 1019.2 -0.5 62
2019-05-31 20:00:00 21.1 10 Este 21 Este 0 1019.2 -0.8 57
2019-05-31 19:00:00 22 10 Este 22 Este 0 1019.4 -1.1 55
2019-05-31 18:00:00 22.7 14 Este 24 Este 0 1019.7 -1.1 50
2019-05-31 17:00:00 22.9 16 Este 26 Este 0 1020 -1.1 50
2019-05-31 16:00:00 22.8 18 Este 30 Este 0 1020.5 -0.9 59
2019-05-31 15:00:00 22.8 17 Este 28 Este 0 1020.8 -0.7 58
2019-05-31 14:00:00 23 14 Este 26 Este 0 1021.1 -0.3 55
2019-05-31 13:00:00 23.3 13 Este 24 Este 0 1021.4 0.1 53
2019-05-31 12:00:00 22.9 13 Este 22 Este 0 1021.5 0.7 52
2019-05-31 11:00:00 22.7 12 Este 22 Este 0 1021.4 0.6 54
2019-05-31 10:00:00 21.4 6 Sudeste 13 Sudeste 0 1021.3 0.9 49
2019-05-31 09:00:00 19.5 5 Sur 9 Sudoeste 0 1020.8 0.7 56
2019-05-31 08:00:00 17.3 0 Calma 5 Oeste 0 1020.8 0.5 62
2019-05-31 07:00:00 14.7 0 Calma 5 Sudeste 0 1020.4 -0.2 73
2019-05-31 06:00:00 14.2 5 Noroeste 11 Norte 0 1020.1 -1 76
2019-05-31 05:00:00 14.7 5 Oeste 13 Oeste 0 1020.3 -1.4 79
2019-05-31 04:00:00 14.9 7 Oeste 17 Noroeste 0 1020.6 -1.4 79
2019-05-31 03:00:00 15.1 12 Noroeste 18 Noroeste 0 1021.1 -1.1 80
2019-05-31 02:00:00 15.5 9 Noroeste 11 Noroeste 0 1021.7 -0.5 78
2019-05-31 01:00:00 16.1 5 Oeste 8 Oeste 0 1022 0.4 75
2019-05-31 00:00:00 18.1 3 Oeste -- -- 0 1022.2 0.8 68
2019-05-30 23:00:00 17.9 0 Calma -- -- 0 1022.2 1.2 69
2019-05-30 22:00:00 18.2 4 Sur 13 Sudeste 0 1021.6 0.6 66
2019-05-30 21:00:00 19.6 9 Sudeste 18 Este 0 1021.4 0.1 60
2019-05-30 20:00:00 20.9 11 Sudeste 26 Este 0 1021 -0.4 52
2019-05-30 19:00:00 21.8 15 Este 26 Este 0 1021 -0.5 48
2019-05-30 18:00:00 22.3 15 Este 28 Sudeste 0 1021.3 -0.2 46
2019-05-30 17:00:00 22.8 17 Este 28 Sudeste 0 1021.4 -0.3 48
2019-05-30 16:00:00 23.4 19 Este 30 Este 0 1021.5 -0.4 45
2019-05-30 15:00:00 24.2 14 Sudeste 26 Este 0 1021.5 -0.8 35
2019-05-30 14:00:00 23.3 17 Este 28 Este 0 1021.7 -0.4 44
2019-05-30 13:00:00 23.2 13 Sudeste 26 Este 0 1021.9 -0.2 47
2019-05-30 12:00:00 22.2 12 Sudeste 24 Este 0 1022.3 0.6 55
2019-05-30 11:00:00 20.6 12 Este 28 Este 0 1022.1 0.8 59
2019-05-30 10:00:00 21.1 6 Este 15 Norte 0 1022.1 1.2 58
2019-05-30 09:00:00 19.8 4 Nordeste 9 Nordeste 0 1021.7 1.3 61
2019-05-30 08:00:00 16.2 5 Noroeste 13 Noroeste 0 1021.3 1 68
2019-05-30 07:00:00 13.9 10 Noroeste 17 Norte 0 1020.9 0.5 76
2019-05-30 06:00:00 14.4 8 Noroeste 17 Noroeste 0 1020.4 -0.1 72
2019-05-30 05:00:00 15 10 Noroeste 15 Noroeste 0 1020.3 -0.5 71
2019-05-30 04:00:00 15.2 11 Noroeste 13 Noroeste 0 1020.4 -0.3 78
2019-05-30 03:00:00 16.3 11 Noroeste 13 Noroeste 0 1020.5 0 71
2019-05-30 02:00:00 16.7 9 Norte 17 Norte 0 1020.8 0.7 72
2019-05-30 01:00:00 17.2 10 Norte 21 Nordeste 0 1020.7 1.6 70
2019-05-30 00:00:00 17.2 6 Nordeste 15 Este 0 1020.5 2.1 76
2019-05-29 23:00:00 17.3 9 Nordeste 17 Este 0 1020.1 2.3 72
2019-05-29 22:00:00 17.6 11 Este 18 Este 0 1019.1 1.7 68
2019-05-29 21:00:00 18.6 16 Este 24 Este 0 1018.4 1.1 58
2019-05-29 20:00:00 19.8 15 Este 28 Este 0 1017.8 0.3 50
2019-05-29 19:00:00 20.3 18 Este 33 Este 0 1017.4 -0.2 48
2019-05-29 18:00:00 21.2 22 Nordeste 33 Norte 0 1017.3 -0.3 43
2019-05-29 17:00:00 20.9 21 Este 35 Este 0 1017.5 0.1 47
2019-05-29 16:00:00 21 29 Este 46 Este 0 1017.6 0.2 45
2019-05-29 15:00:00 21.1 32 Este 46 Este 0 1017.6 0.4 43
2019-05-29 14:00:00 21.2 31 Este 46 Este 0 1017.4 0.3 45
2019-05-29 13:00:00 21.6 33 Este 45 Este 0 1017.4 0.6 43
2019-05-29 12:00:00 21.8 30 Este 39 Este 0 1017.2 0.6 46
2019-05-29 11:00:00 21 26 Este 37 Este 0 1017.1 1 52
2019-05-29 10:00:00 20.5 21 Este 33 Este 0 1016.8 1.2 55
2019-05-29 09:00:00 20.1 23 Este 35 Este 0 1016.6 1.6 57
2019-05-29 08:00:00 19.1 14 Nordeste 24 Nordeste 0 1016.1 1.5 59
2019-05-29 07:00:00 16.8 13 Nordeste 28 Nordeste 0 1015.6 1.4 66
2019-05-29 06:00:00 15.6 10 Este 17 Este 0 1015 1 71
2019-05-29 05:00:00 17.1 7 Nordeste 13 Nordeste 0 1014.6 0.5 60
2019-05-29 04:00:00 16.9 9 Noroeste 11 Noroeste 0 1014.2 0.4 73
2019-05-29 03:00:00 16 -- -- -- -- 0 1014 0.4 72
2019-05-29 02:00:00 17.1 6 Norte 11 Norte 0 1014.1 0.8 66
2019-05-29 01:00:00 17.6 8 Norte 15 Norte 0 1013.8 1.4 67
2019-05-29 00:00:00 18.3 8 Nordeste 15 Norte 0 1013.6 2.2 66
2019-05-28 23:00:00 18.6 8 Nordeste 24 Nordeste 0 1013.3 2.5 75
2019-05-28 22:00:00 18.9 17 Nordeste 26 Nordeste 0 1012.4 2.1 78
2019-05-28 21:00:00 19.3 18 Nordeste 28 Nordeste 0 1011.4 1.4 78
2019-05-28 20:00:00 19.9 17 Este 30 Este 0 1010.8 0.8 76
2019-05-28 19:00:00 20.9 17 Este 28 Este 0 1010.3 0.2 72
2019-05-28 18:00:00 21.8 18 Este 32 Este 0 1010 -0.1 68
2019-05-28 17:00:00 22.6 22 Este 33 Este 0 1010 -0.2 63
2019-05-28 16:00:00 22.7 29 Este 41 Este 0 1010.1 -0.2 62
2019-05-28 15:00:00 22.6 27 Este 39 Este 0 1010.1 -0.2 60
2019-05-28 14:00:00 23.5 26 Este 37 Este 0 1010.2 0.1 58
2019-05-28 13:00:00 23.5 22 Este 32 Este 0 1010.3 0.4 51
2019-05-28 12:00:00 22.8 17 Este 30 Este 0 1010.3 0.7 64
2019-05-28 11:00:00 23.5 15 Este 26 Este 0 1010.1 1 58
2019-05-28 10:00:00 22.6 6 Nordeste 13 Nordeste 0 1009.9 1.4 64
2019-05-28 09:00:00 21.1 4 Noroeste 11 Norte 0 1009.6 1.1 75
2019-05-28 08:00:00 19.1 5 Noroeste 11 Norte 0 1009.1 0.9 87
2019-05-28 07:00:00 18 0 Calma 13 Norte 0 1008.5 0.4 93
2019-05-28 06:00:00 18.3 8 Norte 13 Norte 0 1008.5 0.4 93
2019-05-28 05:00:00 18.5 7 Norte 9 Norte 0 1008.2 -0.2 93
2019-05-28 04:00:00 18.2 6 Norte 9 Norte 0 1008.1 -0.3 91
2019-05-28 03:00:00 18.6 4 Norte 13 Este 0 1008.1 -0.5 92
2019-05-28 02:00:00 19 9 Este 13 Este 0 1008.4 0.1 91
2019-05-28 01:00:00 18.5 7 Nordeste 15 Nordeste 0 1008.4 0.7 91
2019-05-28 00:00:00 19.2 7 Este 11 Este 0 1008.6 0.8 87
2019-05-27 23:00:00 19.3 6 Este 15 Este 0 1008.3 1 85
2019-05-27 22:00:00 19.5 13 Este 18 Este 0 1007.7 0.4 84
2019-05-27 21:00:00 20.4 11 Nordeste 18 Este 0 1007.8 0.2 77
2019-05-27 20:00:00 21.7 13 Este 18 Este 0 1007.3 -0.3 67
2019-05-27 19:00:00 21.7 13 Este 24 Este 0 1007.3 -0.6 70
2019-05-27 18:00:00 23.7 18 Este 28 Norte 0 1007.6 -0.6 62
2019-05-27 17:00:00 24.9 9 Sur 24 Sudeste 0 1007.6 -1.1 51
2019-05-27 16:00:00 25.3 13 Sur 22 Sur 0 1007.9 -1 52
2019-05-27 15:00:00 25.9 10 Sur 30 Sur 0 1008.2 -0.9 49
2019-05-27 14:00:00 24.7 14 Sur 28 Sudeste 0 1008.7 -0.7 55
2019-05-27 13:00:00 25.3 12 Sur 22 Sur 0 1008.9 -0.8 52
2019-05-27 12:00:00 26.1 11 Sur 21 Sur 0 1009.1 -0.6 40
2019-05-27 11:00:00 24 7 Sudoeste 21 Sudoeste 0 1009.4 -0.5 49
2019-05-27 10:00:00 21.8 11 Sudoeste 21 Oeste 0 1009.7 -0.1 59
2019-05-27 09:00:00 19.7 12 Sudoeste 18 Oeste 0 1009.7 -0.1 67
2019-05-27 08:00:00 17.1 11 Oeste 17 Oeste 0 1009.9 0 74
2019-05-27 07:00:00 13.7 12 Oeste 15 Oeste 0 1009.8 -0.7 87
2019-05-27 06:00:00 -- 9 Oeste 13 Oeste 0 1009.8 -1.2 --
2019-05-27 05:00:00 15 10 Oeste 13 Oeste 0 1009.9 -1.6 86
2019-05-27 04:00:00 15.4 10 Oeste 13 Oeste 0 1010.5 -1.6 95
2019-05-27 03:00:00 15.6 9 Oeste 9 Oeste 0 1011 -1.3 92
2019-05-27 02:00:00 16.1 2 Noroeste 5 Norte 0 1011.5 -1 90
2019-05-27 01:00:00 18 6 Este 9 Este 0 1012.1 0 83
2019-05-27 00:00:00 18.6 3 Nordeste 15 Este 0 1012.3 0.6 81
2019-05-26 23:00:00 18.3 9 Nordeste 15 Nordeste 0 1012.5 1 83
2019-05-26 22:00:00 18.8 11 Nordeste 18 Este 0 1012.1 0.5 82
2019-05-26 21:00:00 19.7 13 Este 22 Este 0 1011.7 0.5 81
2019-05-26 20:00:00 20.7 17 Este 30 Este 0 1011.5 0.1 74
2019-05-26 19:00:00 22 10 Este 37 Sur 0 1011.6 0 61
2019-05-26 18:00:00 23.2 22 Sur 39 Sur 0 1011.2 -0.7 53
2019-05-26 17:00:00 24.4 25 Sur 45 Sur 0 1011.4 -0.9 46
2019-05-26 16:00:00 24.5 26 Sur 42 Sur 0 1011.6 -1.2 41
2019-05-26 15:00:00 24.4 22 Sur 39 Sur 0 1011.9 -1.1 42
2019-05-26 14:00:00 25.8 18 Sur 32 Sur 0 1012.3 -0.8 37
2019-05-26 13:00:00 25.6 14 Sur 26 Sur 0 1012.8 -0.4 41
2019-05-26 12:00:00 24.9 14 Sudoeste 30 Oeste 0 1013 -0.5 38
2019-05-26 11:00:00 23.8 13 Sudoeste 22 Oeste 0 1013.1 -0.5 45
2019-05-26 10:00:00 22.2 8 Sudoeste 15 Sudoeste 0 1013.2 -0.4 52
2019-05-26 09:00:00 19.4 10 Sudoeste 15 Sudoeste 0 1013.5 0.3 63
2019-05-26 08:00:00 16.4 8 Oeste 13 Oeste 0 1013.6 0.1 74
2019-05-26 07:00:00 13.3 11 Oeste 15 Oeste 0 1013.6 -0.2 87
2019-05-26 06:00:00 13.7 14 Oeste 15 Oeste 0 1013.2 -1.1 86
2019-05-26 05:00:00 14.4 9 Noroeste 13 Oeste 0 1013.5 -1.2 85
2019-05-26 04:00:00 14.5 10 Oeste 13 Noroeste 0 1013.8 -1.3 86
2019-05-26 03:00:00 14.3 10 Oeste 13 Oeste 0 1014.3 -0.9 88
2019-05-26 02:00:00 14.6 7 Oeste 13 Oeste 0 1014.7 -0.1 87
2019-05-26 01:00:00 14.9 6 Noroeste 13 Oeste 0 1015.1 0.9 86
2019-05-26 00:00:00 16.5 6 Oeste 11 Oeste 0 1015.2 1.7 79
2019-05-25 23:00:00 17.5 5 Oeste 21 Nordeste 0 1014.8 1.8 75
2019-05-25 22:00:00 17.7 12 Nordeste 18 Nordeste 0 1014.2 1.7 74
2019-05-25 21:00:00 18.9 13 Este 28 Norte 0 1013.5 0.9 70
2019-05-25 20:00:00 19.8 18 Este 26 Este 0 1013 0.6 66
2019-05-25 19:00:00 21.5 16 Este 24 Sudeste 0 1012.5 -0.2 54
2019-05-25 18:00:00 22.2 17 Este 32 Norte 0 1012.6 -0.5 50
2019-05-25 17:00:00 22.9 18 Nordeste 39 Norte 0 1012.4 -1 44
2019-05-25 16:00:00 22.4 26 Norte 39 Nordeste 0 1012.7 -0.9 48
2019-05-25 15:00:00 20 24 Norte 37 Norte 0.1 1013.1 0.2 58
2019-05-25 14:00:00 18.6 19 Norte 32 Norte 0.6 1013.4 0.9 72
2019-05-25 13:00:00 19.9 19 Norte 33 Norte 0 1013.6 1.3 57
2019-05-25 12:00:00 20.1 21 Norte 35 Nordeste 0 1012.9 1.3 54
2019-05-25 11:00:00 19.5 8 Nordeste 22 Norte 0 1012.5 1.3 57
2019-05-25 10:00:00 19.2 15 Norte 28 Norte 0 1012.3 1.4 55
2019-05-25 09:00:00 19 18 Norte 32 Norte 0 1011.6 0.9 58
2019-05-25 08:00:00 17.2 2 Sudoeste 8 Oeste 0 1011.2 0.6 73
2019-05-25 07:00:00 16 4 Oeste 8 Oeste 0 1010.9 0 82
2019-05-25 06:00:00 16.1 2 Noroeste 8 Oeste 0 1010.7 -0.3 80
2019-05-25 05:00:00 14.1 6 Oeste 9 Sudoeste 0 1010.6 -0.8 92
2019-05-25 04:00:00 15.3 4 Sudoeste 9 Sur 0 1010.9 -0.9 86
2019-05-25 03:00:00 15.1 6 Oeste 9 Oeste 0 1011 -0.7 89
2019-05-25 02:00:00 14.9 3 Sudoeste 11 Sudoeste 0 1011.4 -0.1 88
2019-05-25 01:00:00 15.9 0 Calma 9 Sur 0 1011.8 0.5 85
2019-05-25 00:00:00 17.8 5 Sudoeste 13 Sudoeste 0 1011.7 0.8 72
2019-05-24 23:00:00 17.5 9 Oeste 13 Este 0 1011.5 0.9 78
2019-05-24 22:00:00 17.5 7 Nordeste 26 Este 0 1011.3 1.7 81
2019-05-24 21:00:00 17.9 20 Este 28 Este 0 1010.9 1.6 81
2019-05-24 20:00:00 18.7 12 Nordeste 37 Este 0 1010.6 1.3 72
2019-05-24 19:00:00 18.7 24 Este 37 Este 0.3 1009.6 0.1 66
2019-05-24 18:00:00 18.4 25 Este 42 Este 0.5 1009.3 -0.1 63
2019-05-24 17:00:00 20.9 29 Nordeste 45 Este 0 1009.3 -0.4 48
2019-05-24 16:00:00 22 33 Nordeste 48 Este 0 1009.5 -0.3 38
2019-05-24 15:00:00 21.7 29 Nordeste 48 Nordeste 0 1009.4 -0.4 48
2019-05-24 14:00:00 21.2 27 Este 41 Este 0 1009.7 0.1 68
2019-05-24 13:00:00 22.3 24 Este 39 Este 0 1009.8 0.4 65
2019-05-24 12:00:00 20.7 25 Nordeste 39 Nordeste 0 1009.8 0.9 70
2019-05-24 11:00:00 20.1 28 Nordeste 37 Este 0 1009.6 0.5 75
2019-05-24 10:00:00 20.3 24 Este 33 Este 0 1009.4 0.5 74
2019-05-24 09:00:00 19.2 7 Nordeste 13 Norte 0 1008.9 -0.1 48
2019-05-24 08:00:00 17.6 0 Calma 5 Sudeste 0 1009.1 -0.1 52
2019-05-24 07:00:00 16.6 4 Noroeste 8 Oeste 0 1008.9 -0.6 54
2019-05-24 06:00:00 15.8 8 Oeste 9 Oeste 0 1009 -1.2 59
2019-05-24 05:00:00 18 0 Calma 8 Oeste 0 1009.2 -1.8 47
2019-05-24 04:00:00 17.7 0 Calma 8 Noroeste 0 1009.5 -2.2 46
2019-05-24 03:00:00 18.7 0 Calma 5 Noroeste 0 1010.2 -1.8 50
2019-05-24 02:00:00 18.9 5 Oeste 8 Oeste 0 1011 -0.9 60
2019-05-24 01:00:00 18.4 5 Noroeste 8 Noroeste 0 1011.7 0 70
2019-05-24 00:00:00 19.4 0 Calma 8 Norte 0 1012 0.3 60
2019-05-23 23:00:00 19.4 5 Norte 11 Norte 0 1011.9 0.1 76
2019-05-23 22:00:00 19.6 5 Sudeste 11 Este 0 1011.7 -0.3 82
2019-05-23 21:00:00 20.9 7 Este 13 Este 0 1011.7 -0.5 79
2019-05-23 20:00:00 22.1 7 Nordeste 15 Este 0 1011.8 -0.6 73
2019-05-23 19:00:00 22.7 12 Este 21 Este 0 1012 -0.9 68
2019-05-23 18:00:00 23.1 14 Este 24 Norte 0 1012.2 -0.9 65
2019-05-23 17:00:00 25.8 15 Este 26 Este 0 1012.4 -1 43
2019-05-23 16:00:00 26.7 10 Sudeste 26 Sudeste 0 1012.9 -0.8 25
2019-05-23 15:00:00 26.6 13 Sudeste 24 Sudeste 0 1013.1 -1.2 20
2019-05-23 14:00:00 28.2 14 Sur 24 Sudeste 0 1013.4 -1.2 20
2019-05-23 13:00:00 28.5 13 Sudeste 32 Sudeste 0 1013.7 -0.9 18
2019-05-23 12:00:00 26.9 6 Oeste 13 Sudoeste 0 1014.3 -0.2 21
2019-05-23 11:00:00 25.6 7 Oeste 13 Oeste 0 1014.6 0.1 19
2019-05-23 10:00:00 24.2 5 Oeste 13 Noroeste 0 1014.6 0.2 20
2019-05-23 09:00:00 21.3 9 Noroeste 17 Noroeste 0 1014.5 0.1 35
2019-05-23 08:00:00 17.2 7 Noroeste 13 Noroeste 0 1014.5 -0.1 52
2019-05-23 07:00:00 14.2 7 Noroeste 9 Noroeste 0 1014.4 -0.6 67
2019-05-23 06:00:00 14 7 Oeste 9 Noroeste 0 1014.4 -0.8 73
2019-05-23 05:00:00 14 -- -- -- -- 0 1014.6 -0.5 85
2019-05-23 04:00:00 14.2 5 Noroeste 5 Noroeste 0 1015 0 85
2019-05-23 03:00:00 16.2 0 Calma 8 Oeste 0 1015.2 0.1 79
2019-05-23 02:00:00 16.1 2 Noroeste 8 Oeste 0 1015.1 0.1 82
2019-05-23 01:00:00 16.7 7 Oeste 9 Oeste 0 1015 0.3 82
2019-05-23 00:00:00 18.4 0 Calma 8 Norte 0 1015.1 0.5 80
2019-05-22 23:00:00 18.6 0 Calma 8 Norte 0 1015 0.6 81
2019-05-22 22:00:00 18.7 3 Sudeste 11 Este 0 1014.7 0.6 79
2019-05-22 21:00:00 19.9 7 Este 15 Sudeste 0 1014.6 0.1 68
2019-05-22 20:00:00 21.6 13 Este 21 Este 0 1014.4 0.1 59
2019-05-22 19:00:00 23.6 14 Este 22 Este 0 1014.1 -0.5 43
2019-05-22 18:00:00 23.6 14 Este 26 Este 0 1014.5 -0.1 50
2019-05-22 17:00:00 23.9 18 Este 28 Sudeste 0 1014.3 -0.5 47
2019-05-22 16:00:00 24.6 19 Este 28 Este 0 1014.6 -0.4 43
2019-05-22 15:00:00 24.6 19 Este 26 Este 0 1014.6 -0.5 40
2019-05-22 14:00:00 24.9 17 Este 26 Este 0 1014.8 0.1 35
2019-05-22 13:00:00 24.1 17 Este 22 Este 0 1015 0.3 39
2019-05-22 12:00:00 24 13 Este 22 Este 0 1015.1 0.8 34
2019-05-22 11:00:00 23.6 9 Sudeste 15 Este 0 1014.7 0.5 36
2019-05-22 10:00:00 21.6 4 Nordeste 9 Nordeste 0 1014.7 1 50
2019-05-22 09:00:00 20.1 0 Calma 4 Noroeste 0 1014.3 0.7 66
2019-05-22 08:00:00 16.5 0 Calma 13 Oeste 0 1014.2 0.8 82
2019-05-22 07:00:00 14.4 8 Oeste -- -- 0 1013.7 0.3 92
2019-05-22 06:00:00 14.3 9 Oeste 13 Noroeste 0 1013.6 -0.2 95
2019-05-22 05:00:00 14.3 6 Noroeste 9 Noroeste 0 1013.4 -0.5 97
2019-05-22 04:00:00 14 5 Noroeste 8 Oeste 0 1013.4 -0.4 95
2019-05-22 03:00:00 14.3 5 Noroeste 8 Noroeste 0 1013.8 0 91
2019-05-22 02:00:00 15 0 Calma 9 Norte 0 1013.9 0.1 90
2019-05-22 01:00:00 15.9 2 Noroeste 11 Noroeste 0 1013.8 0.6 89
2019-05-22 00:00:00 16.8 0 Calma 4 Oeste 0 1013.8 1.5 89